This is the latest recevied weather packets stored in our database for station/object IW0REF-9. If no packets are shown the sender has not sent any weather packets the latest 10 day(s).
| Time | Temp. | Humidity | Pressure | Rain* | Wind** | Luminosity | Snow |
|---|---|---|---|---|---|---|---|
| 1777590028 | 12.22° C | 28% | 1003.2 hPa | - | - | - | - |
| 1777589128 | 12.78° C | 27% | 1003.2 hPa | - | - | - | - |
| 1777588227 | 12.78° C | 27% | 1003.4 hPa | - | - | - | - |
| 1777587327 | 12.78° C | 27% | 1003.4 hPa | - | - | - | - |
| 1777586552 | 13.33° C | 27% | 1003.2 hPa | - | - | - | - |
| 1777585520 | 13.33° C | 27% | 1003.2 hPa | - | - | - | - |
| 1777584620 | 13.89° C | 27% | 1003.2 hPa | - | - | - | - |
| 1777583720 | 13.89° C | 26% | 1003.2 hPa | - | - | - | - |
| 1777582820 | 13.89° C | 26% | 1003 hPa | - | - | - | - |
| 1777581919 | 14.44° C | 26% | 1002.9 hPa | - | - | - | - |
| 1777581018 | 14.44° C | 26% | 1002.9 hPa | - | - | - | - |
| 1777580117 | 15° C | 25% | 1002.8 hPa | - | - | - | - |
| 1777579217 | 15° C | 25% | 1002.6 hPa | - | - | - | - |
| 1777578317 | 15.56° C | 25% | 1002.3 hPa | - | - | - | - |
| 1777577416 | 15.56° C | 24% | 1002.2 hPa | - | - | - | - |
| 1777576514 | 16.11° C | 24% | 1002.1 hPa | - | - | - | - |
| 1777575613 | 16.11° C | 23% | 1002 hPa | - | - | - | - |
| 1777574712 | 16.67° C | 22% | 1001.8 hPa | - | - | - | - |
| 1777573812 | 17.78° C | 20% | 1001.7 hPa | - | - | - | - |
| 1777572912 | 19.44° C | 19% | 1001.4 hPa | - | - | - | - |
| 1777572011 | 22.22° C | 17% | 1001.1 hPa | - | - | - | - |
| 1777571110 | 24.44° C | 17% | 1000.9 hPa | - | - | - | - |
| 1777570209 | 26.67° C | 16% | 1000.8 hPa | - | - | - | - |
| 1777569308 | 27.78° C | 15% | 1000.7 hPa | - | - | - | - |
| 1777568408 | 28.89° C | 15% | 1000.6 hPa | - | - | - | - |
* Rain since midnight (hover to see other rain measurements)
** Current wind speed in m/s (hover to see current wind gust speed)